Time;durP1;ratioP1;P1;durP2;ratioP2;P2;SDS_P1;SDS_P2;PMS_P1;PMS_P2;Temp;Humidity;BMP_temperature;BMP_pressure;BME280_temperature;BME280_humidity;BME280_pressure;Samples;Min_cycle;Max_cycle;Signal;HPM_P1;HPM_P2
2022/04/24 00:02:12;;;;;;;61.20;32.90;;;;;;;5.56;58.33;97557.91;5092657;28;20016;-73
2022/04/24 00:04:38;;;;;;;58.80;32.03;;;;;;;5.57;58.31;97556.00;5091943;28;20494;-73
2022/04/24 00:07:05;;;;;;;60.63;32.85;;;;;;;5.56;58.75;97543.50;5091921;28;20530;-73
2022/04/24 00:09:31;;;;;;;59.67;31.52;;;;;;;5.58;58.92;97547.53;5092602;28;20024;-73
2022/04/24 00:11:57;;;;;;;60.45;33.72;;;;;;;5.62;59.03;97543.16;5091946;28;20024;-73
2022/04/24 00:14:23;;;;;;;58.85;32.08;;;;;;;5.69;58.69;97537.41;5090100;28;20030;-73
2022/04/24 00:16:48;;;;;;;62.22;32.08;;;;;;;5.72;59.25;97541.44;5092622;28;20099;-73
2022/04/24 00:19:15;;;;;;;70.00;35.72;;;;;;;5.75;58.85;97538.94;5092423;28;20024;-73
2022/04/24 00:21:41;;;;;;;75.45;39.17;;;;;;;5.80;58.87;97540.81;5092194;28;20034;-73
2022/04/24 00:24:06;;;;;;;70.15;37.13;;;;;;;5.88;58.92;97534.75;5091709;28;20111;-73
2022/04/24 00:26:31;;;;;;;77.25;39.20;;;;;;;5.96;59.39;97528.66;5092648;28;20032;-73
2022/04/24 00:28:57;;;;;;;84.50;41.45;;;;;;;6.01;59.27;97525.13;5092082;28;20493;-73
2022/04/24 00:31:22;;;;;;;83.85;41.08;;;;;;;6.06;58.98;97519.63;5092174;28;20024;-74
2022/04/24 00:33:48;;;;;;;75.45;38.40;;;;;;;6.15;59.29;97510.78;5090394;28;20581;-74
2022/04/24 00:36:13;;;;;;;64.75;33.78;;;;;;;6.22;59.64;97520.25;5092269;28;20070;-73
2022/04/24 00:38:39;;;;;;;62.30;33.75;;;;;;;6.30;59.40;97513.34;5093063;28;20459;-73
2022/04/24 00:41:04;;;;;;;63.17;33.88;;;;;;;6.37;59.61;97500.19;5093010;28;20466;-73
2022/04/24 00:43:30;;;;;;;56.83;31.10;;;;;;;6.44;59.34;97499.81;5092488;28;20028;-73
2022/04/24 00:46:11;;;;;;;58.55;32.50;;;;;;;6.50;59.75;97504.09;5092447;28;20047;-73
2022/04/24 00:48:37;;;;;;;58.08;31.60;;;;;;;6.57;59.97;97505.66;5092796;28;20024;-73
2022/04/24 00:51:03;;;;;;;57.72;31.92;;;;;;;6.63;59.69;97496.31;5092471;28;20027;-73
2022/04/24 00:53:28;;;;;;;59.72;32.33;;;;;;;6.73;59.57;97493.41;5092678;28;20024;-74
2022/04/24 00:55:55;;;;;;;58.08;31.90;;;;;;;6.78;60.22;97490.63;5092614;28;20024;-74
2022/04/24 00:58:20;;;;;;;58.22;33.13;;;;;;;6.78;59.53;97487.91;5092519;28;20052;-74
2022/04/24 01:00:46;;;;;;;53.42;31.67;;;;;;;6.78;59.86;97493.34;5092790;28;20052;-73
2022/04/24 01:03:13;;;;;;;52.15;30.60;;;;;;;6.74;59.71;97491.53;5092465;28;20542;-73
2022/04/24 01:05:39;;;;;;;59.88;33.95;;;;;;;6.67;59.86;97491.91;5092156;28;20081;-73
2022/04/24 01:08:05;;;;;;;64.25;35.58;;;;;;;6.57;59.83;97487.38;5092373;28;20031;-73
2022/04/24 01:10:37;;;;;;;66.85;36.50;;;;;;;6.48;59.72;97487.25;5091834;28;20027;-73
2022/04/24 01:13:03;;;;;;;64.43;35.67;;;;;;;6.39;59.42;97483.53;5092348;28;20028;-73
2022/04/24 01:15:29;;;;;;;63.88;37.40;;;;;;;6.32;59.96;97486.63;5092148;28;20392;-73
2022/04/24 01:17:56;;;;;;;65.47;37.17;;;;;;;6.28;59.68;97484.78;5092669;28;20031;-73
2022/04/24 01:20:22;;;;;;;64.82;34.47;;;;;;;6.19;59.83;97490.06;5092406;28;20027;-73
2022/04/24 01:22:47;;;;;;;62.05;34.75;;;;;;;6.13;59.93;97485.78;5091308;28;20032;-74
2022/04/24 01:25:16;;;;;;;59.30;34.65;;;;;;;6.08;60.15;97481.22;5091978;28;20024;-73
2022/04/24 01:27:41;;;;;;;59.78;33.95;;;;;;;6.03;60.12;97482.09;5092311;28;20039;-73
2022/04/24 01:30:07;;;;;;;61.78;34.70;;;;;;;6.00;59.92;97488.13;5092432;28;20381;-73
2022/04/24 01:32:34;;;;;;;61.83;34.70;;;;;;;6.04;60.79;97485.63;5091108;28;20453;-74
2022/04/24 01:35:02;;;;;;;62.70;34.60;;;;;;;6.09;60.46;97483.66;5091637;28;20023;-76
2022/04/24 01:37:28;;;;;;;60.63;34.42;;;;;;;6.16;60.30;97479.75;5092015;28;20428;-71
2022/04/24 01:39:54;;;;;;;65.40;35.67;;;;;;;6.21;60.77;97469.63;5091974;28;20032;-71
2022/04/24 01:42:20;;;;;;;57.40;34.33;;;;;;;6.27;60.63;97472.28;5091829;28;20016;-72
2022/04/24 01:44:45;;;;;;;61.42;33.95;;;;;;;6.32;60.58;97467.56;5091288;28;20081;-71
2022/04/24 01:47:11;;;;;;;58.63;33.92;;;;;;;6.36;60.82;97465.06;5091941;28;20541;-71
2022/04/24 01:49:37;;;;;;;70.55;38.80;;;;;;;6.43;61.07;97468.22;5091473;28;20054;-71
2022/04/24 01:52:05;;;;;;;67.00;38.85;;;;;;;6.46;60.75;97467.66;5090873;28;20089;-71
2022/04/24 01:54:30;;;;;;;71.43;40.53;;;;;;;6.50;60.92;97460.50;5090566;28;20055;-71
2022/04/24 01:56:56;;;;;;;65.97;36.20;;;;;;;6.51;60.92;97456.69;5090953;28;20477;-71
2022/04/24 01:59:21;;;;;;;60.28;33.47;;;;;;;6.52;60.73;97452.84;5090719;28;20052;-71
2022/04/24 02:01:47;;;;;;;65.25;35.65;;;;;;;6.49;60.58;97453.44;5091125;28;20527;-72
2022/04/24 02:04:12;;;;;;;62.40;35.55;;;;;;;6.47;60.87;97442.03;5090805;28;20020;-72
2022/04/24 02:06:38;;;;;;;59.10;35.03;;;;;;;6.57;60.97;97434.81;5090997;28;20024;-71
2022/04/24 02:09:03;;;;;;;61.67;35.72;;;;;;;6.55;61.39;97421.47;5091186;28;20020;-72
2022/04/24 02:11:29;;;;;;;66.63;35.80;;;;;;;6.57;61.19;97430.16;5089953;28;20020;-71
2022/04/24 02:13:54;;;;;;;62.03;34.47;;;;;;;6.52;61.28;97417.44;5090769;28;20020;-71
2022/04/24 02:16:20;;;;;;;65.30;38.10;;;;;;;6.53;61.06;97419.06;5091400;28;20020;-72
2022/04/24 02:18:45;;;;;;;70.57;37.70;;;;;;;6.58;61.51;97420.88;5090962;28;20470;-72
2022/04/24 02:21:11;;;;;;;62.97;34.63;;;;;;;6.62;61.35;97426.56;5091155;28;20028;-71
2022/04/24 02:23:36;;;;;;;65.30;35.05;;;;;;;6.56;61.42;97423.09;5090761;28;20020;-71
2022/04/24 02:26:02;;;;;;;63.22;35.75;;;;;;;6.46;61.42;97428.72;5090965;28;20039;-71
2022/04/24 02:28:27;;;;;;;61.63;34.05;;;;;;;6.41;61.56;97424.13;5091108;28;20023;-71
2022/04/24 02:30:53;;;;;;;68.57;36.03;;;;;;;6.50;62.05;97419.66;5091257;28;20493;-72
2022/04/24 02:33:18;;;;;;;60.38;32.67;;;;;;;6.56;62.05;97423.09;5090580;28;20035;-71
2022/04/24 02:35:44;;;;;;;55.67;31.80;;;;;;;6.61;61.60;97424.97;5090009;28;20028;-72
2022/04/24 02:38:09;;;;;;;52.22;29.20;;;;;;;6.64;61.95;97418.91;5099426;28;20496;-73
2022/04/24 02:40:35;;;;;;;52.85;29.58;;;;;;;6.74;62.03;97423.41;5092835;28;20024;-73
2022/04/24 02:43:00;;;;;;;52.25;29.80;;;;;;;6.87;62.31;97421.81;5090736;28;20024;-73
2022/04/24 02:45:25;;;;;;;49.75;30.30;;;;;;;6.96;61.97;97420.03;5089412;28;20052;-74
2022/04/24 02:47:51;;;;;;;51.05;29.23;;;;;;;7.06;61.85;97419.88;5089466;28;20531;-72
2022/04/24 02:50:17;;;;;;;45.72;28.35;;;;;;;7.22;61.98;97405.97;5090079;28;20020;-74
2022/04/24 02:52:45;;;;;;;38.83;24.63;;;;;;;7.31;61.91;97404.16;5090036;28;20020;-73
2022/04/24 02:55:11;;;;;;;37.75;23.33;;;;;;;7.36;62.23;97406.81;5091135;28;20048;-73
2022/04/24 02:57:37;;;;;;;36.45;22.15;;;;;;;7.36;62.21;97395.88;5089799;28;20046;-72
2022/04/24 03:00:04;;;;;;;35.10;21.38;;;;;;;7.41;62.05;97398.53;5089816;28;20028;-73
2022/04/24 03:02:29;;;;;;;42.28;24.67;;;;;;;7.45;62.35;97396.81;5089427;28;20027;-72
2022/04/24 03:04:55;;;;;;;37.85;23.65;;;;;;;7.44;62.30;97387.00;5088781;28;20032;-72
2022/04/24 03:07:20;;;;;;;36.70;23.15;;;;;;;7.45;62.47;97385.09;5089364;28;20053;-72
2022/04/24 03:09:45;;;;;;;38.00;24.77;;;;;;;7.51;62.56;97391.25;5088868;28;20020;-72
2022/04/24 03:12:11;;;;;;;35.85;23.75;;;;;;;7.60;62.51;97394.88;5089412;28;20401;-72
2022/04/24 03:14:36;;;;;;;30.35;21.00;;;;;;;7.69;62.34;97395.81;5089771;28;20343;-72
2022/04/24 03:17:02;;;;;;;33.83;21.25;;;;;;;7.74;62.36;97387.53;5089113;28;20020;-72
2022/04/24 03:19:27;;;;;;;35.72;22.10;;;;;;;7.80;62.58;97388.22;5089342;28;20040;-73
2022/04/24 03:21:53;;;;;;;34.38;21.83;;;;;;;7.81;62.35;97389.03;5089189;28;20009;-73
2022/04/24 03:24:18;;;;;;;31.10;20.10;;;;;;;7.73;62.04;97385.91;5088591;28;20020;-73
2022/04/24 03:26:43;;;;;;;35.92;22.42;;;;;;;7.72;62.06;97386.22;5089394;28;20077;-72
2022/04/24 03:29:09;;;;;;;37.15;22.27;;;;;;;7.77;62.57;97383.34;5089272;28;20436;-72
2022/04/24 03:31:34;;;;;;;31.23;20.83;;;;;;;7.78;62.38;97384.97;5089083;28;20051;-72
2022/04/24 03:34:00;;;;;;;33.50;23.45;;;;;;;7.79;62.49;97383.88;5088668;28;20050;-72
2022/04/24 03:36:26;;;;;;;31.83;22.20;;;;;;;7.77;62.46;97379.84;5088917;28;20028;-72
2022/04/24 03:38:51;;;;;;;30.83;20.90;;;;;;;7.81;63.04;97384.38;5089234;28;20025;-72
2022/04/24 03:41:17;;;;;;;30.60;20.95;;;;;;;7.86;62.82;97380.75;5086198;28;20026;-72
2022/04/24 03:43:42;;;;;;;29.20;19.35;;;;;;;7.88;62.27;97389.44;5088618;28;20397;-72
2022/04/24 03:46:08;;;;;;;30.30;19.13;;;;;;;7.97;62.87;97393.03;5090052;28;20063;-72
2022/04/24 03:48:34;;;;;;;25.20;17.23;;;;;;;8.04;63.06;97387.97;5092418;28;20107;-72
2022/04/24 03:51:01;;;;;;;25.08;16.73;;;;;;;8.10;63.11;97396.91;5093112;28;20175;-73
2022/04/24 03:53:26;;;;;;;21.65;15.30;;;;;;;8.09;62.23;97389.00;5091431;28;20032;-72
2022/04/24 03:55:52;;;;;;;23.63;14.90;;;;;;;8.03;62.56;97391.81;5091819;28;20081;-73
2022/04/24 03:58:17;;;;;;;22.50;15.48;;;;;;;8.07;62.26;97400.22;5089712;28;20024;-73
2022/04/24 04:00:42;;;;;;;22.02;15.40;;;;;;;8.14;62.17;97391.63;5093757;28;20113;-72
2022/04/24 04:03:08;;;;;;;21.85;15.95;;;;;;;8.22;62.70;97401.00;5093483;28;20386;-72
2022/04/24 04:05:38;;;;;;;25.00;16.75;;;;;;;8.22;62.67;97396.34;5091823;28;20031;-73
2022/04/24 04:08:04;;;;;;;24.33;16.13;;;;;;;8.19;62.39;97388.78;5093229;28;20056;-72
2022/04/24 04:10:30;;;;;;;22.70;15.57;;;;;;;8.13;62.43;97390.81;5093395;28;20031;-72
2022/04/24 04:12:55;;;;;;;24.52;16.98;;;;;;;8.03;62.65;97394.56;5093382;28;20032;-72
2022/04/24 04:15:21;;;;;;;26.13;17.25;;;;;;;7.99;62.51;97396.28;5093189;28;20036;-72
2022/04/24 04:17:47;;;;;;;27.73;17.13;;;;;;;7.95;62.72;97408.13;5095820;28;20470;-73
2022/04/24 04:20:13;;;;;;;26.75;18.30;;;;;;;7.97;62.96;97408.63;5087265;28;20119;-73
2022/04/24 04:22:51;;;;;;;21.95;15.75;;;;;;;8.01;63.02;97399.50;5090407;28;20495;-73
2022/04/24 04:25:17;;;;;;;24.65;16.23;;;;;;;7.93;62.45;97396.69;5089538;28;20028;-72
2022/04/24 04:27:42;;;;;;;28.50;18.77;;;;;;;7.84;63.04;97391.16;5090615;28;20028;-73
2022/04/24 04:30:09;;;;;;;23.60;17.35;;;;;;;7.79;63.69;97383.06;5090781;28;20111;-73
2022/04/24 04:32:35;;;;;;;24.63;16.83;;;;;;;7.74;63.69;97392.97;5092207;28;20081;-71
2022/04/24 04:35:01;;;;;;;23.88;16.10;;;;;;;7.70;63.76;97389.22;5090816;28;20024;-73
2022/04/24 04:37:26;;;;;;;25.80;17.65;;;;;;;7.68;63.70;97386.00;5092748;28;20020;-73
2022/04/24 04:39:52;;;;;;;27.50;19.02;;;;;;;7.74;64.08;97398.44;5092841;28;20036;-73
2022/04/24 04:42:17;;;;;;;25.38;17.50;;;;;;;7.78;64.46;97395.88;5091678;28;20028;-73
2022/04/24 04:44:43;;;;;;;23.77;16.00;;;;;;;7.79;63.74;97400.25;5092333;28;20104;-73
2022/04/24 04:47:09;;;;;;;32.40;20.17;;;;;;;7.76;64.72;97392.66;5091732;28;20024;-73
2022/04/24 04:49:34;;;;;;;32.65;20.85;;;;;;;7.81;65.05;97389.81;5093166;28;20027;-73
2022/04/24 04:52:00;;;;;;;31.45;19.75;;;;;;;7.83;64.38;97403.97;5092913;28;20027;-73
2022/04/24 04:54:25;;;;;;;32.95;21.40;;;;;;;7.83;64.72;97393.06;5092538;28;20378;-72
2022/04/24 04:56:51;;;;;;;33.47;21.90;;;;;;;7.78;64.94;97397.81;5091299;28;20035;-72
2022/04/24 04:59:16;;;;;;;35.63;22.65;;;;;;;7.70;65.21;97396.63;5092917;28;20504;-72
2022/04/24 05:01:42;;;;;;;35.70;23.02;;;;;;;7.68;65.37;97393.38;5091330;28;20016;-72
2022/04/24 05:04:07;;;;;;;31.55;20.20;;;;;;;7.66;65.74;97392.88;5092270;28;20032;-72
2022/04/24 05:06:33;;;;;;;28.10;19.33;;;;;;;7.71;65.25;97395.50;5091854;28;20086;-72
2022/04/24 05:08:58;;;;;;;29.30;19.58;;;;;;;7.72;65.83;97403.38;5092469;28;20043;-72
2022/04/24 05:11:23;;;;;;;29.75;19.25;;;;;;;7.70;65.92;97402.09;5092383;28;20028;-72
2022/04/24 05:13:49;;;;;;;28.80;18.52;;;;;;;7.67;65.85;97402.69;5092191;28;20111;-72
2022/04/24 05:16:14;;;;;;;32.78;21.80;;;;;;;7.60;66.62;97408.53;5091777;28;20081;-72
2022/04/24 05:18:40;;;;;;;33.28;20.92;;;;;;;7.51;66.74;97391.25;5092156;28;20032;-72
2022/04/24 05:21:05;;;;;;;32.85;20.40;;;;;;;7.39;67.71;97389.84;5092293;28;20035;-72
2022/04/24 05:23:30;;;;;;;34.85;21.88;;;;;;;7.30;67.93;97397.09;5091955;28;20438;-72
2022/04/24 05:25:56;;;;;;;32.17;21.20;;;;;;;7.29;67.97;97390.03;5091694;28;20039;-73
2022/04/24 05:28:21;;;;;;;31.98;20.10;;;;;;;7.28;68.49;97386.50;5091575;28;20394;-72
2022/04/24 05:30:47;;;;;;;30.15;20.00;;;;;;;7.26;68.89;97390.63;5092101;28;20027;-72
2022/04/24 05:33:19;;;;;;;30.75;19.95;;;;;;;7.30;69.35;97383.44;5091700;28;20095;-72
2022/04/24 05:35:45;;;;;;;30.75;19.70;;;;;;;7.36;69.61;97387.72;5091182;28;20477;-71
2022/04/24 05:38:11;;;;;;;29.58;19.33;;;;;;;7.47;69.19;97392.97;5087942;28;20028;-72
2022/04/24 05:40:36;;;;;;;26.30;19.85;;;;;;;7.52;69.07;97385.50;5090616;28;20028;-72
2022/04/24 05:43:02;;;;;;;31.73;20.15;;;;;;;7.53;69.32;97386.31;5091604;28;20023;-72
2022/04/24 05:45:27;;;;;;;29.75;19.95;;;;;;;7.53;69.19;97380.88;5091601;28;20135;-72
2022/04/24 05:47:56;;;;;;;33.97;23.50;;;;;;;7.49;69.56;97369.72;5092196;28;20028;-72
2022/04/24 05:50:23;;;;;;;30.15;21.75;;;;;;;7.44;70.75;97370.66;5092106;28;20441;-72
2022/04/24 05:52:49;;;;;;;30.38;20.48;;;;;;;7.40;70.41;97357.91;5092288;28;20031;-72
2022/04/24 05:55:14;;;;;;;31.95;21.83;;;;;;;7.39;70.68;97359.00;5091595;28;20581;-73
2022/04/24 05:57:40;;;;;;;37.35;27.35;;;;;;;7.35;70.92;97358.81;5091693;28;20035;-73
2022/04/24 06:00:10;;;;;;;45.25;28.58;;;;;;;7.36;70.56;97359.59;5089246;28;20024;-72
2022/04/24 06:02:35;;;;;;;35.30;23.20;;;;;;;7.35;71.21;97364.28;5090783;28;20028;-72
2022/04/24 06:05:01;;;;;;;36.15;25.58;;;;;;;7.35;71.15;97360.72;5089424;28;20730;-73
2022/04/24 06:07:26;;;;;;;49.33;34.13;;;;;;;7.38;71.74;97365.56;5090498;28;20039;-72
2022/04/24 06:09:52;;;;;;;37.72;27.50;;;;;;;7.41;71.54;97354.88;5089691;28;20032;-72
2022/04/24 06:12:17;;;;;;;33.95;25.98;;;;;;;7.45;71.39;97358.63;5088956;28;20470;-72
2022/04/24 06:14:43;;;;;;;36.08;25.33;;;;;;;7.50;71.92;97362.38;5089289;28;20143;-72
2022/04/24 06:17:08;;;;;;;43.72;30.88;;;;;;;7.57;72.44;97358.13;5090811;28;20055;-72
2022/04/24 06:19:34;;;;;;;39.50;28.35;;;;;;;7.61;72.16;97363.75;5090109;28;20147;-72
2022/04/24 06:22:00;;;;;;;42.60;28.90;;;;;;;7.60;72.70;97353.94;5090660;28;20460;-72
2022/04/24 06:24:26;;;;;;;33.78;25.08;;;;;;;7.59;72.68;97350.44;5088626;28;20035;-72
2022/04/24 06:26:52;;;;;;;34.75;24.23;;;;;;;7.60;72.76;97346.59;5090138;28;20036;-73
2022/04/24 06:29:18;;;;;;;44.42;32.25;;;;;;;7.65;73.12;97359.31;5089211;28;20027;-73
2022/04/24 06:31:43;;;;;;;35.85;26.35;;;;;;;7.66;72.92;97355.47;5088514;28;20036;-72
2022/04/24 06:34:10;;;;;;;33.28;22.48;;;;;;;7.68;73.22;97342.34;5088043;28;20039;-72
2022/04/24 06:36:36;;;;;;;28.02;20.25;;;;;;;7.72;73.31;97342.56;5089969;28;20024;-72
2022/04/24 06:39:02;;;;;;;103.32;46.00;;;;;;;7.75;72.90;97350.09;5089742;28;20362;-72
2022/04/24 06:41:28;;;;;;;53.15;32.50;;;;;;;7.80;73.18;97355.44;5089286;28;20036;-72
2022/04/24 06:43:53;;;;;;;38.88;29.90;;;;;;;7.85;73.42;97346.38;5088997;28;20039;-72
2022/04/24 06:46:19;;;;;;;34.22;23.55;;;;;;;7.89;73.05;97344.66;5089973;28;20123;-73
2022/04/24 06:48:44;;;;;;;37.50;28.13;;;;;;;7.94;72.85;97340.97;5089317;28;20401;-72
2022/04/24 06:51:10;;;;;;;56.22;42.33;;;;;;;8.01;73.36;97342.19;5088093;28;20117;-72
2022/04/24 06:53:38;;;;;;;89.47;58.03;;;;;;;8.13;72.99;97335.38;5088496;28;20051;-73
2022/04/24 06:56:04;;;;;;;76.13;47.20;;;;;;;8.23;72.67;97337.88;5088814;28;20032;-73
2022/04/24 06:58:30;;;;;;;135.63;81.85;;;;;;;8.27;72.81;97335.34;5089388;28;20054;-73
2022/04/24 07:00:56;;;;;;;124.28;76.85;;;;;;;8.30;72.84;97337.44;5089277;28;20482;-72
2022/04/24 07:03:22;;;;;;;100.65;60.05;;;;;;;8.30;72.33;97332.81;5087369;28;20024;-72
2022/04/24 07:05:49;;;;;;;93.88;54.33;;;;;;;8.31;72.35;97330.88;5087866;28;20111;-72
2022/04/24 07:08:14;;;;;;;93.88;60.10;;;;;;;8.31;72.25;97336.34;5086331;28;20393;-73
2022/04/24 07:10:40;;;;;;;75.95;47.55;;;;;;;8.29;72.44;97331.19;5088141;28;20028;-70
2022/04/24 07:13:06;;;;;;;53.92;39.60;;;;;;;8.29;72.66;97320.25;5087318;28;20028;-72
2022/04/24 07:15:35;;;;;;;46.42;34.33;;;;;;;8.32;72.60;97324.28;5089438;28;20071;-72
2022/04/24 07:18:01;;;;;;;55.83;39.13;;;;;;;8.31;73.13;97318.03;5088121;28;20390;-73
2022/04/24 07:20:29;;;;;;;90.75;66.15;;;;;;;8.32;72.49;97316.91;5089056;28;20024;-73
2022/04/24 07:23:00;;;;;;;41.47;31.40;;;;;;;8.34;72.77;97309.22;5092848;28;20485;-73
2022/04/24 07:25:27;;;;;;;46.85;32.58;;;;;;;8.35;72.86;97312.75;5092744;28;20036;-73
2022/04/24 07:27:53;;;;;;;41.70;29.58;;;;;;;8.37;73.08;97310.50;5092047;28;20036;-72
2022/04/24 07:30:20;;;;;;;41.70;30.70;;;;;;;8.40;72.49;97314.53;5093526;28;20035;-73
2022/04/24 07:32:48;;;;;;;38.55;27.58;;;;;;;8.47;72.24;97314.91;5091380;28;20028;-73
2022/04/24 07:35:19;;;;;;;38.53;30.52;;;;;;;8.51;72.44;97310.47;5091193;28;20114;-71
2022/04/24 07:37:44;;;;;;;43.80;33.83;;;;;;;8.57;72.51;97311.97;5092223;28;20023;-75
2022/04/24 07:40:12;;;;;;;35.78;28.10;;;;;;;8.64;72.55;97306.88;5093004;28;20075;-76
2022/04/24 07:42:48;;;;;;;35.88;28.10;;;;;;;8.72;72.72;97312.72;5091798;28;20111;-75
2022/04/24 07:45:33;;;;;;;29.05;21.98;;;;;;;8.77;72.24;97305.19;5091306;28;20410;-76
2022/04/24 07:47:59;;;;;;;31.00;23.08;;;;;;;8.82;71.79;97309.69;5092300;28;20024;-76
2022/04/24 07:50:30;;;;;;;29.88;20.92;;;;;;;8.91;72.09;97310.56;5091717;28;20651;-76
2022/04/24 07:52:56;;;;;;;28.20;20.95;;;;;;;9.00;72.30;97298.88;5092364;28;20173;-76
2022/04/24 07:55:23;;;;;;;31.17;22.98;;;;;;;9.09;72.06;97297.78;5093276;28;20530;-76
2022/04/24 07:57:54;;;;;;;32.45;22.17;;;;;;;9.09;71.92;97295.03;5090795;28;20032;-76
2022/04/24 08:00:22;;;;;;;30.48;21.25;;;;;;;9.09;71.37;97296.97;5090318;28;20107;-75
2022/04/24 08:02:49;;;;;;;66.68;35.72;;;;;;;9.13;71.97;97297.16;5093489;28;20518;-75
2022/04/24 08:05:25;;;;;;;44.80;26.17;;;;;;;9.16;71.34;97294.59;5091389;28;20031;-75
2022/04/24 08:07:51;;;;;;;38.88;24.77;;;;;;;9.19;71.53;97304.09;5092273;28;20533;-75
2022/04/24 08:10:17;;;;;;;32.33;21.48;;;;;;;9.21;71.37;97308.13;5093066;28;20024;-75
2022/04/24 08:12:43;;;;;;;34.38;21.23;;;;;;;9.21;71.08;97296.38;5093099;28;20035;-75
2022/04/24 08:15:09;;;;;;;39.38;24.27;;;;;;;9.21;71.43;97301.84;5092470;28;20025;-75
2022/04/24 08:17:34;;;;;;;48.05;28.77;;;;;;;9.17;70.73;97304.41;5092834;28;20099;-76
2022/04/24 08:20:00;;;;;;;36.13;24.45;;;;;;;9.19;70.98;97306.84;5093175;28;20120;-75
2022/04/24 08:22:54;;;;;;;33.20;23.25;;;;;;;9.24;71.01;97307.50;5092598;28;20427;-75
2022/04/24 08:25:22;;;;;;;42.28;25.00;;;;;;;9.21;70.50;97297.16;5089689;28;20111;-75
2022/04/24 08:27:48;;;;;;;42.15;25.33;;;;;;;9.16;70.42;97294.59;5092569;28;20110;-75
2022/04/24 08:30:15;;;;;;;34.65;23.40;;;;;;;9.16;70.57;97299.25;5092429;28;20073;-76
2022/04/24 08:32:42;;;;;;;38.90;22.55;;;;;;;9.14;69.95;97285.91;5091855;28;20043;-76
2022/04/24 08:35:09;;;;;;;35.05;22.30;;;;;;;9.10;70.20;97284.91;5090492;28;20028;-75
2022/04/24 08:37:36;;;;;;;34.88;22.83;;;;;;;9.09;71.35;97288.78;5091939;28;20032;-76
2022/04/24 08:40:03;;;;;;;30.65;20.50;;;;;;;9.08;70.35;97287.16;5088289;28;20031;-75
2022/04/24 08:42:29;;;;;;;34.92;23.55;;;;;;;9.10;70.40;97282.19;5091462;28;20027;-73
2022/04/24 08:44:58;;;;;;;34.15;20.60;;;;;;;9.13;70.43;97273.34;5088021;28;20123;-76
2022/04/24 08:47:25;;;;;;;28.85;19.10;;;;;;;9.16;70.40;97283.66;5090387;28;20095;-75
2022/04/24 08:49:55;;;;;;;37.85;22.35;;;;;;;9.16;69.96;97277.38;5091559;28;20028;-75
2022/04/24 08:52:21;;;;;;;29.42;17.77;;;;;;;9.17;70.20;97281.72;5088529;28;20028;-76
2022/04/24 08:54:49;;;;;;;33.08;20.45;;;;;;;9.19;70.29;97272.06;5090277;28;20047;-75
2022/04/24 08:57:15;;;;;;;30.55;20.60;;;;;;;9.20;70.39;97270.94;5088551;28;20028;-75
2022/04/24 08:59:41;;;;;;;46.13;23.02;;;;;;;9.20;70.19;97272.88;5091436;28;20020;-75
2022/04/24 09:02:09;;;;;;;44.35;23.48;;;;;;;9.19;70.22;97263.06;5087329;28;20024;-74
2022/04/24 09:04:35;;;;;;;38.22;21.42;;;;;;;9.20;70.19;97267.41;5090020;28;20397;-74
2022/04/24 09:07:03;;;;;;;36.00;20.90;;;;;;;9.19;70.26;97265.81;5090929;28;20024;-74
2022/04/24 09:09:31;;;;;;;39.72;22.70;;;;;;;9.18;70.19;97264.97;5091193;28;20503;-74
2022/04/24 09:12:10;;;;;;;42.00;25.45;;;;;;;9.17;70.10;97255.16;5090782;28;20036;-73
2022/04/24 09:14:36;;;;;;;33.45;19.88;;;;;;;9.22;70.44;97249.53;5089219;28;20145;-72
2022/04/24 09:17:07;;;;;;;50.00;25.38;;;;;;;9.28;70.19;97249.41;5089677;28;20062;-73
2022/04/24 09:19:35;;;;;;;42.03;22.60;;;;;;;9.35;70.63;97249.75;5087931;28;20119;-73
2022/04/24 09:22:06;;;;;;;35.22;18.95;;;;;;;9.41;70.84;97248.47;5090850;28;20024;-73
2022/04/24 09:24:49;;;;;;;33.42;19.38;;;;;;;9.49;70.30;97250.44;5090800;28;20053;-73
2022/04/24 09:27:30;;;;;;;31.25;18.65;;;;;;;9.59;70.68;97251.25;5090562;28;20107;-73
2022/04/24 09:30:04;;;;;;;154.95;75.88;;;;;;;9.67;70.00;97243.06;5090403;28;20070;-73
2022/04/24 09:32:45;;;;;;;186.45;102.28;;;;;;;9.76;70.03;97240.31;5087596;28;20032;-74
2022/04/24 09:35:22;;;;;;;68.22;44.03;;;;;;;9.88;70.18;97236.16;5088548;28;20034;-73
2022/04/24 09:37:48;;;;;;;32.63;20.90;;;;;;;9.94;69.39;97232.91;5089628;28;20028;-73
2022/04/24 09:40:13;;;;;;;34.78;19.23;;;;;;;10.00;70.05;97228.06;5091271;28;20416;-73
2022/04/24 09:42:39;;;;;;;29.60;16.67;;;;;;;10.08;69.64;97223.75;5089499;28;20032;-74
2022/04/24 09:45:05;;;;;;;24.27;15.88;;;;;;;10.09;69.60;97226.16;5087446;28;20438;-75
2022/04/24 09:47:30;;;;;;;26.45;18.13;;;;;;;10.12;69.17;97225.50;5089581;28;20043;-74
2022/04/24 09:49:59;;;;;;;21.48;15.10;;;;;;;10.12;69.25;97216.50;5086615;28;20030;-74
2022/04/24 09:52:27;;;;;;;20.55;15.00;;;;;;;10.13;69.36;97215.38;5091469;28;20036;-74
2022/04/24 09:54:54;;;;;;;23.83;15.15;;;;;;;10.16;69.34;97214.72;5089494;28;20020;-75
2022/04/24 09:57:24;;;;;;;25.13;16.00;;;;;;;10.15;69.42;97212.28;5090311;28;20081;-71
2022/04/24 09:59:53;;;;;;;23.40;16.92;;;;;;;10.18;69.22;97219.84;5089786;28;20032;-72
2022/04/24 10:02:20;;;;;;;26.48;17.35;;;;;;;10.20;69.34;97214.84;5088892;28;20024;-71
2022/04/24 10:04:47;;;;;;;25.20;16.95;;;;;;;10.26;69.82;97208.88;5090095;28;20031;-71
2022/04/24 10:07:15;;;;;;;22.50;15.52;;;;;;;10.48;69.42;97196.13;5090782;28;20020;-71
2022/04/24 10:09:43;;;;;;;24.88;17.27;;;;;;;10.81;70.37;97197.47;5086538;28;20032;-71
2022/04/24 10:12:19;;;;;;;21.60;15.15;;;;;;;11.17;69.29;97202.47;5088946;28;20040;-72
2022/04/24 10:15:03;;;;;;;22.70;16.42;;;;;;;11.36;69.27;97203.19;5090005;28;20508;-72
2022/04/24 10:18:06;;;;;;;25.05;17.50;;;;;;;11.46;69.55;97205.53;5089950;28;20032;-71
2022/04/24 10:21:00;;;;;;;25.55;18.80;;;;;;;11.50;68.85;97209.22;5084149;28;20035;-71
2022/04/24 10:23:32;;;;;;;22.90;16.40;;;;;;;11.43;68.08;97201.50;5089889;28;20032;-71
2022/04/24 10:25:57;;;;;;;23.17;16.45;;;;;;;11.38;67.97;97195.41;5090448;28;20105;-70
2022/04/24 10:28:27;;;;;;;26.25;18.35;;;;;;;11.31;67.56;97201.44;5090714;28;20112;-72
2022/04/24 10:31:01;;;;;;;24.50;17.70;;;;;;;11.25;67.87;97183.56;5090694;28;20032;-72
2022/04/24 10:33:28;;;;;;;25.98;19.52;;;;;;;11.26;68.32;97194.19;5090473;28;20418;-72
2022/04/24 10:36:05;;;;;;;69.85;40.65;;;;;;;11.25;68.07;97189.03;5090237;28;20081;-71
2022/04/24 10:38:32;;;;;;;44.85;29.00;;;;;;;11.15;67.82;97190.22;5090444;28;20036;-79
2022/04/24 10:41:02;;;;;;;79.10;39.08;;;;;;;11.08;67.50;97187.97;5091813;28;20085;-73
2022/04/24 10:43:38;;;;;;;;;;;;;;;11.08;68.07;97168.78;5086851;28;20405;-74
2022/04/24 10:46:34;;;;;;;70.88;32.38;;;;;;;11.22;68.20;97165.00;5088644;28;19924;-74
2022/04/24 10:49:13;;;;;;;114.40;44.28;;;;;;;11.35;68.25;97163.97;5072410;28;20040;-75
2022/04/24 10:51:44;;;;;;;119.53;45.50;;;;;;;11.42;67.95;97161.47;5060222;28;21404;-74
2022/04/24 10:54:15;;;;;;;90.05;36.38;;;;;;;11.45;67.97;97151.78;5060664;28;20663;-74
2022/04/24 10:56:42;;;;;;;89.70;37.67;;;;;;;11.51;67.83;97150.44;5067998;28;20036;-74
2022/04/24 10:59:11;;;;;;;101.80;39.85;;;;;;;11.57;68.22;97157.34;5068719;28;20081;-74
2022/04/24 11:01:40;;;;;;;143.48;48.65;;;;;;;11.60;68.06;97153.09;5068244;28;20017;-73
2022/04/24 11:04:07;;;;;;;108.72;43.42;;;;;;;11.61;68.22;97155.50;5069619;28;20043;-74
2022/04/24 11:06:33;;;;;;;69.40;33.80;;;;;;;11.65;68.05;97152.09;5069053;28;20041;-75
2022/04/24 11:09:09;;;;;;;50.97;29.73;;;;;;;11.74;68.56;97136.34;5067337;28;20110;-73
2022/04/24 11:11:56;;;;;;;44.47;28.30;;;;;;;11.86;67.66;97132.84;5058574;28;20028;-70
2022/04/24 11:14:25;;;;;;;39.47;27.17;;;;;;;11.99;67.95;97133.72;5058848;28;20048;-72
2022/04/24 11:16:52;;;;;;;40.72;29.25;;;;;;;12.17;67.77;97135.16;5080040;28;20103;-73
2022/04/24 11:19:26;;;;;;;47.65;32.35;;;;;;;12.40;67.92;97133.97;5068328;28;20386;-73
2022/04/24 11:21:59;;;;;;;57.58;39.63;;;;;;;12.63;67.69;97137.88;5068064;28;20023;-73
2022/04/24 11:24:28;;;;;;;53.45;38.60;;;;;;;12.82;67.59;97142.03;5067320;28;20035;-73
2022/04/24 11:26:54;;;;;;;32.08;23.35;;;;;;;12.93;67.13;97139.63;5068618;28;20075;-74